sensor_id;sensor_type;location;lat;lon;timestamp;P1;durP1;ratioP1;P2;durP2;ratioP2
70908;SDS011;58554;52.006;5.926;2023-04-24T00:00:53;4.77;;;3.33;;
70908;SDS011;58554;52.006;5.926;2023-04-24T00:03:19;6.28;;;3.80;;
70908;SDS011;58554;52.006;5.926;2023-04-24T00:05:46;6.40;;;3.90;;
70908;SDS011;58554;52.006;5.926;2023-04-24T00:08:12;6.73;;;4.00;;
70908;SDS011;58554;52.006;5.926;2023-04-24T00:10:39;6.80;;;3.90;;
70908;SDS011;58554;52.006;5.926;2023-04-24T00:13:06;7.77;;;4.00;;
70908;SDS011;58554;52.006;5.926;2023-04-24T00:15:33;6.43;;;4.23;;
70908;SDS011;58554;52.006;5.926;2023-04-24T00:18:02;6.57;;;4.00;;
70908;SDS011;58554;52.006;5.926;2023-04-24T00:20:29;6.10;;;3.97;;
70908;SDS011;58554;52.006;5.926;2023-04-24T00:22:56;7.70;;;4.20;;
70908;SDS011;58554;52.006;5.926;2023-04-24T00:25:22;6.57;;;4.30;;
70908;SDS011;58554;52.006;5.926;2023-04-24T00:27:49;6.60;;;3.80;;
70908;SDS011;58554;52.006;5.926;2023-04-24T00:30:15;6.30;;;3.70;;
70908;SDS011;58554;52.006;5.926;2023-04-24T00:32:42;5.33;;;3.33;;
70908;SDS011;58554;52.006;5.926;2023-04-24T00:35:11;4.87;;;2.97;;
70908;SDS011;58554;52.006;5.926;2023-04-24T00:37:38;3.80;;;2.67;;
70908;SDS011;58554;52.006;5.926;2023-04-24T00:40:05;5.33;;;2.80;;
70908;SDS011;58554;52.006;5.926;2023-04-24T00:42:33;3.72;;;2.42;;
70908;SDS011;58554;52.006;5.926;2023-04-24T00:45:00;4.23;;;2.20;;
70908;SDS011;58554;52.006;5.926;2023-04-24T00:47:28;4.00;;;2.40;;
70908;SDS011;58554;52.006;5.926;2023-04-24T00:49:55;3.53;;;2.70;;
70908;SDS011;58554;52.006;5.926;2023-04-24T00:52:24;3.77;;;2.10;;
70908;SDS011;58554;52.006;5.926;2023-04-24T00:54:51;3.63;;;2.53;;
70908;SDS011;58554;52.006;5.926;2023-04-24T00:57:18;3.90;;;2.63;;
70908;SDS011;58554;52.006;5.926;2023-04-24T00:59:45;3.70;;;2.50;;
70908;SDS011;58554;52.006;5.926;2023-04-24T01:02:12;4.40;;;2.90;;
70908;SDS011;58554;52.006;5.926;2023-04-24T01:04:39;4.07;;;2.90;;
70908;SDS011;58554;52.006;5.926;2023-04-24T01:07:06;4.83;;;3.13;;
70908;SDS011;58554;52.006;5.926;2023-04-24T01:09:35;4.22;;;3.13;;
70908;SDS011;58554;52.006;5.926;2023-04-24T01:12:02;5.50;;;3.30;;
70908;SDS011;58554;52.006;5.926;2023-04-24T01:14:29;5.73;;;3.73;;
70908;SDS011;58554;52.006;5.926;2023-04-24T01:16:56;6.47;;;3.80;;
70908;SDS011;58554;52.006;5.926;2023-04-24T01:19:23;6.83;;;4.10;;
70908;SDS011;58554;52.006;5.926;2023-04-24T01:21:51;8.25;;;4.72;;
70908;SDS011;58554;52.006;5.926;2023-04-24T01:24:26;8.65;;;4.90;;
70908;SDS011;58554;52.006;5.926;2023-04-24T01:26:54;10.85;;;6.10;;
70908;SDS011;58554;52.006;5.926;2023-04-24T01:29:20;10.50;;;6.00;;
70908;SDS011;58554;52.006;5.926;2023-04-24T01:31:47;11.50;;;6.90;;
70908;SDS011;58554;52.006;5.926;2023-04-24T01:34:14;11.27;;;6.53;;
70908;SDS011;58554;52.006;5.926;2023-04-24T01:36:41;10.73;;;6.07;;
70908;SDS011;58554;52.006;5.926;2023-04-24T01:39:11;11.95;;;6.60;;
70908;SDS011;58554;52.006;5.926;2023-04-24T01:41:41;11.82;;;6.43;;
70908;SDS011;58554;52.006;5.926;2023-04-24T01:44:07;11.77;;;6.00;;
70908;SDS011;58554;52.006;5.926;2023-04-24T01:46:34;8.65;;;4.68;;
70908;SDS011;58554;52.006;5.926;2023-04-24T01:49:01;7.13;;;4.47;;
70908;SDS011;58554;52.006;5.926;2023-04-24T01:51:28;6.57;;;4.13;;
70908;SDS011;58554;52.006;5.926;2023-04-24T01:53:55;5.78;;;3.55;;
70908;SDS011;58554;52.006;5.926;2023-04-24T01:56:21;5.45;;;3.42;;
70908;SDS011;58554;52.006;5.926;2023-04-24T01:58:51;5.77;;;3.60;;
70908;SDS011;58554;52.006;5.926;2023-04-24T02:01:20;4.77;;;3.00;;
70908;SDS011;58554;52.006;5.926;2023-04-24T02:03:47;5.50;;;3.10;;
70908;SDS011;58554;52.006;5.926;2023-04-24T02:06:13;6.22;;;3.10;;
70908;SDS011;58554;52.006;5.926;2023-04-24T02:08:40;4.95;;;3.33;;
70908;SDS011;58554;52.006;5.926;2023-04-24T02:11:08;7.00;;;3.80;;
70908;SDS011;58554;52.006;5.926;2023-04-24T02:13:34;7.10;;;4.38;;
70908;SDS011;58554;52.006;5.926;2023-04-24T02:16:04;6.57;;;3.85;;
70908;SDS011;58554;52.006;5.926;2023-04-24T02:18:30;7.95;;;4.15;;
70908;SDS011;58554;52.006;5.926;2023-04-24T02:20:57;9.27;;;5.10;;
70908;SDS011;58554;52.006;5.926;2023-04-24T02:23:23;9.00;;;5.05;;
70908;SDS011;58554;52.006;5.926;2023-04-24T02:25:50;9.40;;;5.30;;
70908;SDS011;58554;52.006;5.926;2023-04-24T02:28:16;9.70;;;5.32;;
70908;SDS011;58554;52.006;5.926;2023-04-24T02:30:43;10.52;;;5.95;;
70908;SDS011;58554;52.006;5.926;2023-04-24T02:33:12;10.18;;;5.95;;
70908;SDS011;58554;52.006;5.926;2023-04-24T02:35:39;10.30;;;5.80;;
70908;SDS011;58554;52.006;5.926;2023-04-24T02:38:05;10.38;;;6.00;;
70908;SDS011;58554;52.006;5.926;2023-04-24T02:40:32;13.70;;;7.53;;
70908;SDS011;58554;52.006;5.926;2023-04-24T02:42:58;16.05;;;9.40;;
70908;SDS011;58554;52.006;5.926;2023-04-24T02:45:25;18.07;;;9.90;;
70908;SDS011;58554;52.006;5.926;2023-04-24T02:47:51;17.83;;;9.50;;
70908;SDS011;58554;52.006;5.926;2023-04-24T02:50:20;17.20;;;9.90;;
70908;SDS011;58554;52.006;5.926;2023-04-24T02:52:47;19.50;;;10.50;;
70908;SDS011;58554;52.006;5.926;2023-04-24T02:55:13;17.03;;;9.70;;
70908;SDS011;58554;52.006;5.926;2023-04-24T02:57:40;16.53;;;9.47;;
70908;SDS011;58554;52.006;5.926;2023-04-24T03:00:07;17.40;;;9.67;;
70908;SDS011;58554;52.006;5.926;2023-04-24T03:02:35;19.43;;;10.07;;
70908;SDS011;58554;52.006;5.926;2023-04-24T03:05:02;18.20;;;9.87;;
70908;SDS011;58554;52.006;5.926;2023-04-24T03:07:31;17.45;;;9.15;;
70908;SDS011;58554;52.006;5.926;2023-04-24T03:09:58;17.15;;;8.85;;
70908;SDS011;58554;52.006;5.926;2023-04-24T03:12:24;15.68;;;8.73;;
70908;SDS011;58554;52.006;5.926;2023-04-24T03:14:51;14.85;;;8.32;;
70908;SDS011;58554;52.006;5.926;2023-04-24T03:17:17;12.33;;;7.20;;
70908;SDS011;58554;52.006;5.926;2023-04-24T03:19:44;13.05;;;7.60;;
70908;SDS011;58554;52.006;5.926;2023-04-24T03:22:10;11.90;;;6.93;;
70908;SDS011;58554;52.006;5.926;2023-04-24T03:24:40;14.33;;;8.10;;
70908;SDS011;58554;52.006;5.926;2023-04-24T03:27:06;13.90;;;8.55;;
70908;SDS011;58554;52.006;5.926;2023-04-24T03:29:33;15.93;;;8.40;;
70908;SDS011;58554;52.006;5.926;2023-04-24T03:31:59;16.05;;;9.00;;
70908;SDS011;58554;52.006;5.926;2023-04-24T03:34:26;14.37;;;8.60;;
70908;SDS011;58554;52.006;5.926;2023-04-24T03:36:52;15.47;;;9.33;;
70908;SDS011;58554;52.006;5.926;2023-04-24T03:39:19;15.57;;;9.07;;
70908;SDS011;58554;52.006;5.926;2023-04-24T03:41:48;15.43;;;9.33;;
70908;SDS011;58554;52.006;5.926;2023-04-24T03:44:15;17.07;;;9.73;;
70908;SDS011;58554;52.006;5.926;2023-04-24T03:46:41;18.88;;;10.45;;
70908;SDS011;58554;52.006;5.926;2023-04-24T03:49:08;17.38;;;10.40;;
70908;SDS011;58554;52.006;5.926;2023-04-24T03:51:34;18.90;;;10.85;;
70908;SDS011;58554;52.006;5.926;2023-04-24T03:54:01;19.33;;;10.60;;
70908;SDS011;58554;52.006;5.926;2023-04-24T03:56:27;19.25;;;11.20;;
70908;SDS011;58554;52.006;5.926;2023-04-24T03:58:56;20.38;;;11.55;;
70908;SDS011;58554;52.006;5.926;2023-04-24T04:01:23;22.17;;;11.80;;
70908;SDS011;58554;52.006;5.926;2023-04-24T04:03:49;23.70;;;13.07;;
70908;SDS011;58554;52.006;5.926;2023-04-24T04:06:16;25.35;;;14.65;;
70908;SDS011;58554;52.006;5.926;2023-04-24T04:08:42;25.30;;;14.05;;
70908;SDS011;58554;52.006;5.926;2023-04-24T04:11:09;26.42;;;13.48;;
70908;SDS011;58554;52.006;5.926;2023-04-24T04:13:35;27.73;;;14.60;;
70908;SDS011;58554;52.006;5.926;2023-04-24T04:16:05;27.27;;;14.30;;
70908;SDS011;58554;52.006;5.926;2023-04-24T04:18:31;27.27;;;15.43;;
70908;SDS011;58554;52.006;5.926;2023-04-24T04:20:58;27.07;;;14.77;;
70908;SDS011;58554;52.006;5.926;2023-04-24T04:23:25;26.63;;;14.40;;
70908;SDS011;58554;52.006;5.926;2023-04-24T04:25:51;25.33;;;13.73;;
70908;SDS011;58554;52.006;5.926;2023-04-24T04:28:18;25.83;;;13.63;;
70908;SDS011;58554;52.006;5.926;2023-04-24T04:30:45;24.93;;;13.43;;
70908;SDS011;58554;52.006;5.926;2023-04-24T04:33:14;24.55;;;13.05;;
70908;SDS011;58554;52.006;5.926;2023-04-24T04:35:40;24.73;;;13.67;;
70908;SDS011;58554;52.006;5.926;2023-04-24T04:38:07;27.27;;;14.50;;
70908;SDS011;58554;52.006;5.926;2023-04-24T04:40:36;24.67;;;13.13;;
70908;SDS011;58554;52.006;5.926;2023-04-24T04:43:03;25.38;;;13.38;;
70908;SDS011;58554;52.006;5.926;2023-04-24T04:45:29;25.70;;;13.60;;
70908;SDS011;58554;52.006;5.926;2023-04-24T04:47:56;25.75;;;13.05;;
70908;SDS011;58554;52.006;5.926;2023-04-24T04:50:25;23.55;;;12.70;;
70908;SDS011;58554;52.006;5.926;2023-04-24T04:52:52;24.55;;;12.90;;
70908;SDS011;58554;52.006;5.926;2023-04-24T04:55:18;25.20;;;12.95;;
70908;SDS011;58554;52.006;5.926;2023-04-24T04:57:45;22.50;;;12.33;;
70908;SDS011;58554;52.006;5.926;2023-04-24T05:00:12;23.02;;;11.45;;
70908;SDS011;58554;52.006;5.926;2023-04-24T05:02:39;22.58;;;12.13;;
70908;SDS011;58554;52.006;5.926;2023-04-24T05:05:06;24.83;;;12.35;;
70908;SDS011;58554;52.006;5.926;2023-04-24T05:07:36;23.02;;;11.43;;
70908;SDS011;58554;52.006;5.926;2023-04-24T05:10:03;21.23;;;11.30;;
70908;SDS011;58554;52.006;5.926;2023-04-24T05:12:31;22.70;;;11.90;;
70908;SDS011;58554;52.006;5.926;2023-04-24T05:14:58;23.25;;;11.98;;
70908;SDS011;58554;52.006;5.926;2023-04-24T05:17:24;24.30;;;12.07;;
70908;SDS011;58554;52.006;5.926;2023-04-24T05:19:51;24.08;;;11.63;;
70908;SDS011;58554;52.006;5.926;2023-04-24T05:22:17;21.33;;;10.93;;
70908;SDS011;58554;52.006;5.926;2023-04-24T05:24:47;23.25;;;11.07;;
70908;SDS011;58554;52.006;5.926;2023-04-24T05:27:13;19.27;;;11.20;;
70908;SDS011;58554;52.006;5.926;2023-04-24T05:29:40;18.55;;;9.80;;
70908;SDS011;58554;52.006;5.926;2023-04-24T05:32:06;19.15;;;9.68;;
70908;SDS011;58554;52.006;5.926;2023-04-24T05:34:33;20.60;;;10.43;;
70908;SDS011;58554;52.006;5.926;2023-04-24T05:37:00;18.67;;;9.30;;
70908;SDS011;58554;52.006;5.926;2023-04-24T05:39:26;20.85;;;10.30;;
70908;SDS011;58554;52.006;5.926;2023-04-24T05:41:56;18.00;;;10.07;;
70908;SDS011;58554;52.006;5.926;2023-04-24T05:44:22;19.58;;;10.32;;
70908;SDS011;58554;52.006;5.926;2023-04-24T05:46:49;18.27;;;9.35;;
70908;SDS011;58554;52.006;5.926;2023-04-24T05:49:15;18.67;;;9.52;;
70908;SDS011;58554;52.006;5.926;2023-04-24T05:51:42;17.93;;;9.03;;
70908;SDS011;58554;52.006;5.926;2023-04-24T05:54:08;16.02;;;7.90;;
70908;SDS011;58554;52.006;5.926;2023-04-24T05:56:35;17.10;;;8.48;;
70908;SDS011;58554;52.006;5.926;2023-04-24T05:59:04;15.23;;;8.17;;
70908;SDS011;58554;52.006;5.926;2023-04-24T06:01:31;15.67;;;7.90;;
70908;SDS011;58554;52.006;5.926;2023-04-24T06:03:57;16.73;;;8.40;;
70908;SDS011;58554;52.006;5.926;2023-04-24T06:06:24;15.93;;;7.90;;
70908;SDS011;58554;52.006;5.926;2023-04-24T06:08:51;15.57;;;7.63;;
70908;SDS011;58554;52.006;5.926;2023-04-24T06:11:17;15.27;;;7.33;;
70908;SDS011;58554;52.006;5.926;2023-04-24T06:13:44;13.30;;;7.10;;
70908;SDS011;58554;52.006;5.926;2023-04-24T06:16:13;15.13;;;7.20;;
70908;SDS011;58554;52.006;5.926;2023-04-24T06:18:39;17.43;;;7.33;;
70908;SDS011;58554;52.006;5.926;2023-04-24T06:21:06;12.30;;;6.65;;
70908;SDS011;58554;52.006;5.926;2023-04-24T06:23:33;12.98;;;6.97;;
70908;SDS011;58554;52.006;5.926;2023-04-24T06:25:59;11.73;;;6.40;;
70908;SDS011;58554;52.006;5.926;2023-04-24T06:28:26;11.50;;;5.95;;
70908;SDS011;58554;52.006;5.926;2023-04-24T06:30:53;11.73;;;6.17;;
70908;SDS011;58554;52.006;5.926;2023-04-24T06:33:22;11.95;;;5.93;;
70908;SDS011;58554;52.006;5.926;2023-04-24T06:35:48;10.18;;;5.72;;
70908;SDS011;58554;52.006;5.926;2023-04-24T06:38:15;10.68;;;5.68;;
70908;SDS011;58554;52.006;5.926;2023-04-24T06:40:41;9.57;;;5.25;;
70908;SDS011;58554;52.006;5.926;2023-04-24T06:43:08;10.70;;;5.50;;
70908;SDS011;58554;52.006;5.926;2023-04-24T06:45:34;11.75;;;5.10;;
70908;SDS011;58554;52.006;5.926;2023-04-24T06:48:01;7.97;;;4.63;;
70908;SDS011;58554;52.006;5.926;2023-04-24T06:50:30;8.25;;;4.80;;
70908;SDS011;58554;52.006;5.926;2023-04-24T06:52:56;8.60;;;4.47;;
70908;SDS011;58554;52.006;5.926;2023-04-24T06:55:23;7.70;;;3.97;;
70908;SDS011;58554;52.006;5.926;2023-04-24T06:57:49;8.60;;;3.90;;
70908;SDS011;58554;52.006;5.926;2023-04-24T07:00:16;6.60;;;3.75;;
70908;SDS011;58554;52.006;5.926;2023-04-24T07:02:43;5.68;;;3.63;;
70908;SDS011;58554;52.006;5.926;2023-04-24T07:05:10;7.00;;;3.80;;
70908;SDS011;58554;52.006;5.926;2023-04-24T07:07:39;6.38;;;3.33;;
70908;SDS011;58554;52.006;5.926;2023-04-24T07:10:06;6.07;;;3.37;;
70908;SDS011;58554;52.006;5.926;2023-04-24T07:12:34;5.37;;;2.93;;
70908;SDS011;58554;52.006;5.926;2023-04-24T07:15:00;4.82;;;2.95;;
70908;SDS011;58554;52.006;5.926;2023-04-24T07:17:27;5.80;;;2.97;;
70908;SDS011;58554;52.006;5.926;2023-04-24T07:19:54;5.05;;;2.92;;
70908;SDS011;58554;52.006;5.926;2023-04-24T07:22:20;4.22;;;2.53;;
70908;SDS011;58554;52.006;5.926;2023-04-24T07:24:50;4.90;;;2.70;;
70908;SDS011;58554;52.006;5.926;2023-04-24T07:27:16;4.80;;;2.53;;
70908;SDS011;58554;52.006;5.926;2023-04-24T07:29:42;4.10;;;2.50;;
70908;SDS011;58554;52.006;5.926;2023-04-24T07:32:09;5.32;;;2.55;;
70908;SDS011;58554;52.006;5.926;2023-04-24T07:34:36;4.10;;;2.35;;
70908;SDS011;58554;52.006;5.926;2023-04-24T07:37:02;3.97;;;2.53;;
70908;SDS011;58554;52.006;5.926;2023-04-24T07:39:29;3.77;;;2.53;;
70908;SDS011;58554;52.006;5.926;2023-04-24T07:41:58;4.30;;;2.30;;
70908;SDS011;58554;52.006;5.926;2023-04-24T07:44:25;4.10;;;2.60;;
70908;SDS011;58554;52.006;5.926;2023-04-24T07:46:52;4.13;;;2.50;;
70908;SDS011;58554;52.006;5.926;2023-04-24T07:49:18;3.90;;;2.33;;
70908;SDS011;58554;52.006;5.926;2023-04-24T07:51:45;7.20;;;2.83;;
70908;SDS011;58554;52.006;5.926;2023-04-24T07:54:12;5.43;;;3.22;;
70908;SDS011;58554;52.006;5.926;2023-04-24T07:56:38;5.95;;;3.28;;
70908;SDS011;58554;52.006;5.926;2023-04-24T07:59:09;6.35;;;3.92;;
70908;SDS011;58554;52.006;5.926;2023-04-24T08:01:37;7.67;;;4.40;;
70908;SDS011;58554;52.006;5.926;2023-04-24T08:04:03;8.77;;;4.75;;
70908;SDS011;58554;52.006;5.926;2023-04-24T08:06:30;10.43;;;6.10;;
70908;SDS011;58554;52.006;5.926;2023-04-24T08:08:57;12.73;;;6.07;;
70908;SDS011;58554;52.006;5.926;2023-04-24T08:11:24;12.05;;;6.18;;
70908;SDS011;58554;52.006;5.926;2023-04-24T08:13:51;11.17;;;5.73;;
70908;SDS011;58554;52.006;5.926;2023-04-24T08:16:20;10.20;;;5.90;;
70908;SDS011;58554;52.006;5.926;2023-04-24T08:18:47;11.38;;;6.10;;
70908;SDS011;58554;52.006;5.926;2023-04-24T08:21:13;10.70;;;6.15;;
70908;SDS011;58554;52.006;5.926;2023-04-24T08:23:40;12.57;;;5.60;;
70908;SDS011;58554;52.006;5.926;2023-04-24T08:26:07;9.65;;;5.50;;
70908;SDS011;58554;52.006;5.926;2023-04-24T08:28:34;10.37;;;5.60;;
70908;SDS011;58554;52.006;5.926;2023-04-24T08:31:01;10.83;;;6.17;;
70908;SDS011;58554;52.006;5.926;2023-04-24T08:33:30;10.88;;;5.93;;
70908;SDS011;58554;52.006;5.926;2023-04-24T08:35:56;10.32;;;5.15;;
70908;SDS011;58554;52.006;5.926;2023-04-24T08:38:23;10.32;;;5.75;;
70908;SDS011;58554;52.006;5.926;2023-04-24T08:40:50;12.43;;;5.95;;
70908;SDS011;58554;52.006;5.926;2023-04-24T08:43:17;10.38;;;5.85;;
70908;SDS011;58554;52.006;5.926;2023-04-24T08:45:44;10.63;;;5.70;;
70908;SDS011;58554;52.006;5.926;2023-04-24T08:48:10;13.02;;;6.65;;
70908;SDS011;58554;52.006;5.926;2023-04-24T08:50:44;10.75;;;5.93;;
70908;SDS011;58554;52.006;5.926;2023-04-24T08:53:11;12.65;;;5.43;;
70908;SDS011;58554;52.006;5.926;2023-04-24T08:55:39;13.75;;;5.85;;
70908;SDS011;58554;52.006;5.926;2023-04-24T08:58:12;11.25;;;5.53;;
70908;SDS011;58554;52.006;5.926;2023-04-24T09:00:42;10.90;;;6.20;;
70908;SDS011;58554;52.006;5.926;2023-04-24T09:03:09;10.67;;;6.00;;
70908;SDS011;58554;52.006;5.926;2023-04-24T09:05:36;10.20;;;5.53;;
70908;SDS011;58554;52.006;5.926;2023-04-24T09:08:06;10.03;;;5.23;;
70908;SDS011;58554;52.006;5.926;2023-04-24T09:10:34;11.13;;;5.40;;
70908;SDS011;58554;52.006;5.926;2023-04-24T09:13:01;8.77;;;4.60;;
70908;SDS011;58554;52.006;5.926;2023-04-24T09:15:27;6.85;;;4.30;;
70908;SDS011;58554;52.006;5.926;2023-04-24T09:17:55;7.13;;;3.70;;
70908;SDS011;58554;52.006;5.926;2023-04-24T09:20:22;7.40;;;4.47;;
70908;SDS011;58554;52.006;5.926;2023-04-24T09:22:48;6.57;;;3.83;;
70908;SDS011;58554;52.006;5.926;2023-04-24T09:25:23;6.38;;;4.10;;
70908;SDS011;58554;52.006;5.926;2023-04-24T09:27:59;7.78;;;3.85;;
70908;SDS011;58554;52.006;5.926;2023-04-24T09:30:27;9.60;;;4.10;;
70908;SDS011;58554;52.006;5.926;2023-04-24T09:33:09;10.60;;;4.20;;
70908;SDS011;58554;52.006;5.926;2023-04-24T09:35:40;11.82;;;4.45;;
70908;SDS011;58554;52.006;5.926;2023-04-24T09:38:07;12.05;;;4.20;;
70908;SDS011;58554;52.006;5.926;2023-04-24T09:40:36;7.68;;;3.65;;
70908;SDS011;58554;52.006;5.926;2023-04-24T09:43:03;8.90;;;2.92;;
70908;SDS011;58554;52.006;5.926;2023-04-24T09:45:34;8.68;;;3.85;;
70908;SDS011;58554;52.006;5.926;2023-04-24T09:48:03;8.13;;;3.20;;
70908;SDS011;58554;52.006;5.926;2023-04-24T09:50:31;5.95;;;3.00;;
70908;SDS011;58554;52.006;5.926;2023-04-24T09:52:58;7.57;;;2.80;;
70908;SDS011;58554;52.006;5.926;2023-04-24T09:55:29;8.50;;;3.17;;
70908;SDS011;58554;52.006;5.926;2023-04-24T09:57:59;7.70;;;2.90;;
70908;SDS011;58554;52.006;5.926;2023-04-24T10:00:28;8.67;;;3.20;;
70908;SDS011;58554;52.006;5.926;2023-04-24T10:02:57;8.63;;;2.93;;
70908;SDS011;58554;52.006;5.926;2023-04-24T10:05:27;6.03;;;3.00;;
70908;SDS011;58554;52.006;5.926;2023-04-24T10:08:02;8.65;;;2.80;;
70908;SDS011;58554;52.006;5.926;2023-04-24T10:10:30;5.80;;;2.80;;
70908;SDS011;58554;52.006;5.926;2023-04-24T10:13:03;8.40;;;3.00;;
70908;SDS011;58554;52.006;5.926;2023-04-24T10:15:32;8.20;;;2.88;;
70908;SDS011;58554;52.006;5.926;2023-04-24T10:18:00;7.37;;;3.50;;
70908;SDS011;58554;52.006;5.926;2023-04-24T10:20:29;8.20;;;2.67;;
70908;SDS011;58554;52.006;5.926;2023-04-24T10:22:57;4.80;;;2.80;;
70908;SDS011;58554;52.006;5.926;2023-04-24T10:25:26;7.15;;;3.10;;
70908;SDS011;58554;52.006;5.926;2023-04-24T10:27:55;6.53;;;3.05;;
70908;SDS011;58554;52.006;5.926;2023-04-24T10:30:26;8.07;;;2.80;;
70908;SDS011;58554;52.006;5.926;2023-04-24T10:32:54;6.30;;;2.80;;
70908;SDS011;58554;52.006;5.926;2023-04-24T10:35:21;7.25;;;3.15;;
70908;SDS011;58554;52.006;5.926;2023-04-24T10:37:50;10.52;;;2.95;;
70908;SDS011;58554;52.006;5.926;2023-04-24T10:40:25;9.98;;;2.85;;
70908;SDS011;58554;52.006;5.926;2023-04-24T10:42:55;5.75;;;2.80;;
70908;SDS011;58554;52.006;5.926;2023-04-24T10:45:23;5.27;;;2.63;;
70908;SDS011;58554;52.006;5.926;2023-04-24T10:48:02;11.17;;;2.67;;
70908;SDS011;58554;52.006;5.926;2023-04-24T10:50:41;7.93;;;2.80;;
70908;SDS011;58554;52.006;5.926;2023-04-24T10:53:14;4.37;;;2.23;;
70908;SDS011;58554;52.006;5.926;2023-04-24T10:55:44;6.18;;;2.70;;
70908;SDS011;58554;52.006;5.926;2023-04-24T10:58:13;8.05;;;2.60;;
70908;SDS011;58554;52.006;5.926;2023-04-24T11:00:43;5.40;;;2.43;;
70908;SDS011;58554;52.006;5.926;2023-04-24T11:03:23;6.68;;;2.38;;
70908;SDS011;58554;52.006;5.926;2023-04-24T11:05:53;7.55;;;2.50;;
70908;SDS011;58554;52.006;5.926;2023-04-24T11:08:28;7.28;;;2.50;;
70908;SDS011;58554;52.006;5.926;2023-04-24T11:10:58;6.88;;;2.58;;
70908;SDS011;58554;52.006;5.926;2023-04-24T11:14:00;6.30;;;2.30;;
70908;SDS011;58554;52.006;5.926;2023-04-24T11:16:33;5.40;;;2.00;;
70908;SDS011;58554;52.006;5.926;2023-04-24T11:19:17;5.25;;;2.20;;
70908;SDS011;58554;52.006;5.926;2023-04-24T11:21:48;3.95;;;2.05;;
70908;SDS011;58554;52.006;5.926;2023-04-24T11:24:22;7.07;;;2.30;;
70908;SDS011;58554;52.006;5.926;2023-04-24T11:27:11;4.72;;;1.58;;
70908;SDS011;58554;52.006;5.926;2023-04-24T11:29:41;4.40;;;1.80;;
70908;SDS011;58554;52.006;5.926;2023-04-24T11:32:22;4.20;;;1.50;;
70908;SDS011;58554;52.006;5.926;2023-04-24T11:34:52;3.35;;;1.38;;
70908;SDS011;58554;52.006;5.926;2023-04-24T11:37:22;3.53;;;1.40;;
70908;SDS011;58554;52.006;5.926;2023-04-24T11:39:50;3.63;;;1.60;;
70908;SDS011;58554;52.006;5.926;2023-04-24T11:42:18;3.92;;;1.15;;
70908;SDS011;58554;52.006;5.926;2023-04-24T11:44:47;2.22;;;1.33;;
70908;SDS011;58554;52.006;5.926;2023-04-24T11:47:15;4.38;;;1.35;;
70908;SDS011;58554;52.006;5.926;2023-04-24T11:49:44;3.40;;;1.70;;
70908;SDS011;58554;52.006;5.926;2023-04-24T11:52:11;2.65;;;1.33;;
70908;SDS011;58554;52.006;5.926;2023-04-24T11:54:46;2.20;;;1.10;;
70908;SDS011;58554;52.006;5.926;2023-04-24T11:57:14;4.93;;;1.40;;
70908;SDS011;58554;52.006;5.926;2023-04-24T11:59:41;3.53;;;1.20;;
70908;SDS011;58554;52.006;5.926;2023-04-24T12:02:08;3.00;;;1.10;;
70908;SDS011;58554;52.006;5.926;2023-04-24T12:04:46;2.30;;;1.08;;
70908;SDS011;58554;52.006;5.926;2023-04-24T12:07:12;3.17;;;1.13;;
70908;SDS011;58554;52.006;5.926;2023-04-24T12:09:42;3.10;;;1.30;;
70908;SDS011;58554;52.006;5.926;2023-04-24T12:12:11;2.20;;;1.10;;
70908;SDS011;58554;52.006;5.926;2023-04-24T12:14:42;2.35;;;1.17;;
70908;SDS011;58554;52.006;5.926;2023-04-24T12:17:10;2.28;;;1.10;;
70908;SDS011;58554;52.006;5.926;2023-04-24T12:19:37;3.70;;;1.30;;
70908;SDS011;58554;52.006;5.926;2023-04-24T12:22:06;3.78;;;1.50;;
70908;SDS011;58554;52.006;5.926;2023-04-24T12:24:33;1.75;;;1.00;;
70908;SDS011;58554;52.006;5.926;2023-04-24T12:26:59;2.93;;;1.23;;
70908;SDS011;58554;52.006;5.926;2023-04-24T12:29:26;2.90;;;1.27;;
70908;SDS011;58554;52.006;5.926;2023-04-24T12:31:53;3.63;;;1.40;;
70908;SDS011;58554;52.006;5.926;2023-04-24T12:34:20;4.93;;;1.33;;
70908;SDS011;58554;52.006;5.926;2023-04-24T12:36:48;3.28;;;1.40;;
70908;SDS011;58554;52.006;5.926;2023-04-24T12:39:17;3.90;;;1.53;;
70908;SDS011;58554;52.006;5.926;2023-04-24T12:41:54;4.03;;;1.45;;
70908;SDS011;58554;52.006;5.926;2023-04-24T12:44:28;3.23;;;1.50;;
70908;SDS011;58554;52.006;5.926;2023-04-24T12:46:55;2.50;;;1.27;;
70908;SDS011;58554;52.006;5.926;2023-04-24T12:49:22;3.20;;;1.20;;
70908;SDS011;58554;52.006;5.926;2023-04-24T12:51:48;2.53;;;1.58;;
70908;SDS011;58554;52.006;5.926;2023-04-24T12:54:18;2.70;;;1.30;;
70908;SDS011;58554;52.006;5.926;2023-04-24T12:56:45;2.80;;;1.27;;
70908;SDS011;58554;52.006;5.926;2023-04-24T12:59:11;3.70;;;1.20;;
70908;SDS011;58554;52.006;5.926;2023-04-24T13:01:38;4.10;;;1.50;;
70908;SDS011;58554;52.006;5.926;2023-04-24T13:04:05;2.80;;;1.10;;
70908;SDS011;58554;52.006;5.926;2023-04-24T13:06:31;3.37;;;1.17;;
70908;SDS011;58554;52.006;5.926;2023-04-24T13:08:58;3.50;;;1.30;;
70908;SDS011;58554;52.006;5.926;2023-04-24T13:11:27;3.20;;;1.17;;
70908;SDS011;58554;52.006;5.926;2023-04-24T13:13:54;5.40;;;1.33;;
70908;SDS011;58554;52.006;5.926;2023-04-24T13:16:21;2.88;;;1.42;;
70908;SDS011;58554;52.006;5.926;2023-04-24T13:18:47;2.55;;;1.35;;
70908;SDS011;58554;52.006;5.926;2023-04-24T13:21:14;5.47;;;2.33;;
70908;SDS011;58554;52.006;5.926;2023-04-24T13:23:40;3.63;;;1.00;;
70908;SDS011;58554;52.006;5.926;2023-04-24T13:26:07;5.25;;;1.73;;
70908;SDS011;58554;52.006;5.926;2023-04-24T13:28:36;3.30;;;1.33;;
70908;SDS011;58554;52.006;5.926;2023-04-24T13:31:02;5.25;;;1.42;;
70908;SDS011;58554;52.006;5.926;2023-04-24T13:33:29;3.43;;;1.30;;
70908;SDS011;58554;52.006;5.926;2023-04-24T13:35:56;3.47;;;1.50;;
70908;SDS011;58554;52.006;5.926;2023-04-24T13:38:23;5.35;;;1.77;;
70908;SDS011;58554;52.006;5.926;2023-04-24T13:40:49;3.15;;;1.60;;
70908;SDS011;58554;52.006;5.926;2023-04-24T13:43:16;4.10;;;1.70;;
70908;SDS011;58554;52.006;5.926;2023-04-24T13:45:46;4.23;;;1.53;;
70908;SDS011;58554;52.006;5.926;2023-04-24T13:48:13;4.10;;;1.43;;
70908;SDS011;58554;52.006;5.926;2023-04-24T13:50:39;5.10;;;1.50;;
70908;SDS011;58554;52.006;5.926;2023-04-24T13:53:07;6.38;;;1.98;;
70908;SDS011;58554;52.006;5.926;2023-04-24T13:55:33;5.57;;;1.83;;
70908;SDS011;58554;52.006;5.926;2023-04-24T13:58:00;3.67;;;1.52;;
70908;SDS011;58554;52.006;5.926;2023-04-24T14:00:27;3.80;;;1.80;;
70908;SDS011;58554;52.006;5.926;2023-04-24T14:02:56;5.13;;;1.65;;
70908;SDS011;58554;52.006;5.926;2023-04-24T14:05:23;5.03;;;1.83;;
70908;SDS011;58554;52.006;5.926;2023-04-24T14:07:50;4.13;;;1.87;;
70908;SDS011;58554;52.006;5.926;2023-04-24T14:10:17;3.77;;;1.90;;
70908;SDS011;58554;52.006;5.926;2023-04-24T14:12:44;7.57;;;1.70;;
70908;SDS011;58554;52.006;5.926;2023-04-24T14:15:10;9.23;;;2.50;;
70908;SDS011;58554;52.006;5.926;2023-04-24T14:17:37;7.30;;;2.07;;
70908;SDS011;58554;52.006;5.926;2023-04-24T14:20:07;4.93;;;2.20;;
70908;SDS011;58554;52.006;5.926;2023-04-24T14:22:34;5.75;;;2.50;;
70908;SDS011;58554;52.006;5.926;2023-04-24T14:25:01;7.32;;;2.47;;
70908;SDS011;58554;52.006;5.926;2023-04-24T14:27:27;7.60;;;2.10;;
70908;SDS011;58554;52.006;5.926;2023-04-24T14:29:54;6.28;;;2.20;;
70908;SDS011;58554;52.006;5.926;2023-04-24T14:32:20;6.57;;;2.33;;
70908;SDS011;58554;52.006;5.926;2023-04-24T14:34:47;7.13;;;2.17;;
70908;SDS011;58554;52.006;5.926;2023-04-24T14:37:16;5.70;;;2.30;;
70908;SDS011;58554;52.006;5.926;2023-04-24T14:39:43;3.97;;;2.03;;
70908;SDS011;58554;52.006;5.926;2023-04-24T14:42:09;6.50;;;2.20;;
70908;SDS011;58554;52.006;5.926;2023-04-24T14:44:35;7.73;;;1.90;;